sensor_id;sensor_type;location;lat;lon;timestamp;P1;durP1;ratioP1;P2;durP2;ratioP2
2544;SDS011;36212;48.838;9.142;2024-03-08T00:01:57;23.33;;;20.83;;
2544;SDS011;36212;48.838;9.142;2024-03-08T00:04:36;26.55;;;21.27;;
2544;SDS011;36212;48.838;9.142;2024-03-08T00:07:17;25.00;;;20.05;;
2544;SDS011;36212;48.838;9.142;2024-03-08T00:09:50;26.08;;;19.35;;
2544;SDS011;36212;48.838;9.142;2024-03-08T00:12:22;26.00;;;20.25;;
2544;SDS011;36212;48.838;9.142;2024-03-08T00:14:57;27.98;;;21.75;;
2544;SDS011;36212;48.838;9.142;2024-03-08T00:17:29;22.65;;;18.80;;
2544;SDS011;36212;48.838;9.142;2024-03-08T00:20:03;26.85;;;20.60;;
2544;SDS011;36212;48.838;9.142;2024-03-08T00:22:38;27.02;;;20.13;;
2544;SDS011;36212;48.838;9.142;2024-03-08T00:25:11;27.38;;;20.45;;
2544;SDS011;36212;48.838;9.142;2024-03-08T00:27:44;26.95;;;20.90;;
2544;SDS011;36212;48.838;9.142;2024-03-08T00:30:19;29.63;;;20.27;;
2544;SDS011;36212;48.838;9.142;2024-03-08T00:32:55;27.52;;;20.55;;
2544;SDS011;36212;48.838;9.142;2024-03-08T00:35:27;26.85;;;19.90;;
2544;SDS011;36212;48.838;9.142;2024-03-08T00:38:00;27.85;;;19.70;;
2544;SDS011;36212;48.838;9.142;2024-03-08T00:40:33;24.73;;;19.52;;
2544;SDS011;36212;48.838;9.142;2024-03-08T00:43:05;28.85;;;19.25;;
2544;SDS011;36212;48.838;9.142;2024-03-08T00:46:02;23.20;;;19.55;;
2544;SDS011;36212;48.838;9.142;2024-03-08T00:48:35;23.45;;;18.90;;
2544;SDS011;36212;48.838;9.142;2024-03-08T00:51:13;27.35;;;20.90;;
2544;SDS011;36212;48.838;9.142;2024-03-08T00:53:47;27.02;;;19.85;;
2544;SDS011;36212;48.838;9.142;2024-03-08T00:56:21;26.80;;;19.40;;
2544;SDS011;36212;48.838;9.142;2024-03-08T00:58:55;28.20;;;20.58;;
2544;SDS011;36212;48.838;9.142;2024-03-08T01:01:27;24.80;;;19.67;;
2544;SDS011;36212;48.838;9.142;2024-03-08T01:03:59;26.92;;;20.63;;
2544;SDS011;36212;48.838;9.142;2024-03-08T01:06:32;26.20;;;19.70;;
2544;SDS011;36212;48.838;9.142;2024-03-08T01:09:10;28.35;;;21.25;;
2544;SDS011;36212;48.838;9.142;2024-03-08T01:11:43;26.45;;;18.90;;
2544;SDS011;36212;48.838;9.142;2024-03-08T01:14:17;24.52;;;19.00;;
2544;SDS011;36212;48.838;9.142;2024-03-08T01:16:49;22.98;;;19.42;;
2544;SDS011;36212;48.838;9.142;2024-03-08T01:19:22;26.90;;;19.35;;
2544;SDS011;36212;48.838;9.142;2024-03-08T01:21:55;26.13;;;20.80;;
2544;SDS011;36212;48.838;9.142;2024-03-08T01:24:28;23.55;;;19.35;;
2544;SDS011;36212;48.838;9.142;2024-03-08T01:27:01;22.58;;;18.48;;
2544;SDS011;36212;48.838;9.142;2024-03-08T01:29:34;27.15;;;19.92;;
2544;SDS011;36212;48.838;9.142;2024-03-08T01:32:06;27.55;;;20.17;;
2544;SDS011;36212;48.838;9.142;2024-03-08T01:34:40;23.75;;;17.95;;
2544;SDS011;36212;48.838;9.142;2024-03-08T01:37:12;23.77;;;18.10;;
2544;SDS011;36212;48.838;9.142;2024-03-08T01:39:46;25.42;;;19.55;;
2544;SDS011;36212;48.838;9.142;2024-03-08T01:42:19;27.15;;;20.65;;
2544;SDS011;36212;48.838;9.142;2024-03-08T01:44:52;23.88;;;18.70;;
2544;SDS011;36212;48.838;9.142;2024-03-08T01:47:25;30.60;;;20.55;;
2544;SDS011;36212;48.838;9.142;2024-03-08T01:49:57;26.45;;;21.10;;
2544;SDS011;36212;48.838;9.142;2024-03-08T01:52:34;25.83;;;20.40;;
2544;SDS011;36212;48.838;9.142;2024-03-08T01:55:08;25.90;;;20.92;;
2544;SDS011;36212;48.838;9.142;2024-03-08T01:57:44;25.58;;;19.98;;
2544;SDS011;36212;48.838;9.142;2024-03-08T02:00:17;30.77;;;19.17;;
2544;SDS011;36212;48.838;9.142;2024-03-08T02:02:53;27.38;;;19.92;;
2544;SDS011;36212;48.838;9.142;2024-03-08T02:05:27;22.95;;;18.88;;
2544;SDS011;36212;48.838;9.142;2024-03-08T02:08:00;24.20;;;19.10;;
2544;SDS011;36212;48.838;9.142;2024-03-08T02:10:36;24.60;;;17.30;;
2544;SDS011;36212;48.838;9.142;2024-03-08T02:13:09;25.45;;;19.50;;
2544;SDS011;36212;48.838;9.142;2024-03-08T02:18:34;28.08;;;18.48;;
2544;SDS011;36212;48.838;9.142;2024-03-08T02:21:09;21.70;;;16.55;;
2544;SDS011;36212;48.838;9.142;2024-03-08T02:23:42;22.42;;;18.38;;
2544;SDS011;36212;48.838;9.142;2024-03-08T02:26:15;25.02;;;18.52;;
2544;SDS011;36212;48.838;9.142;2024-03-08T02:28:47;23.85;;;19.67;;
2544;SDS011;36212;48.838;9.142;2024-03-08T02:31:20;25.65;;;20.13;;
2544;SDS011;36212;48.838;9.142;2024-03-08T02:33:53;25.35;;;19.20;;
2544;SDS011;36212;48.838;9.142;2024-03-08T02:36:26;25.10;;;19.65;;
2544;SDS011;36212;48.838;9.142;2024-03-08T02:38:58;25.10;;;19.52;;
2544;SDS011;36212;48.838;9.142;2024-03-08T02:41:32;24.60;;;18.60;;
2544;SDS011;36212;48.838;9.142;2024-03-08T02:44:04;25.70;;;17.95;;
2544;SDS011;36212;48.838;9.142;2024-03-08T02:46:39;23.02;;;17.10;;
2544;SDS011;36212;48.838;9.142;2024-03-08T02:49:11;25.48;;;18.83;;
2544;SDS011;36212;48.838;9.142;2024-03-08T02:51:44;22.92;;;18.45;;
2544;SDS011;36212;48.838;9.142;2024-03-08T02:54:18;24.15;;;19.13;;
2544;SDS011;36212;48.838;9.142;2024-03-08T02:56:52;22.35;;;18.38;;
2544;SDS011;36212;48.838;9.142;2024-03-08T02:59:25;28.30;;;19.60;;
2544;SDS011;36212;48.838;9.142;2024-03-08T03:01:57;26.02;;;17.48;;
2544;SDS011;36212;48.838;9.142;2024-03-08T03:04:29;21.25;;;16.55;;
2544;SDS011;36212;48.838;9.142;2024-03-08T03:07:03;23.67;;;17.35;;
2544;SDS011;36212;48.838;9.142;2024-03-08T03:09:36;25.95;;;18.27;;
2544;SDS011;36212;48.838;9.142;2024-03-08T03:12:08;26.27;;;17.77;;
2544;SDS011;36212;48.838;9.142;2024-03-08T03:14:41;21.55;;;17.52;;
2544;SDS011;36212;48.838;9.142;2024-03-08T03:17:13;20.40;;;17.60;;
2544;SDS011;36212;48.838;9.142;2024-03-08T03:19:46;24.25;;;18.15;;
2544;SDS011;36212;48.838;9.142;2024-03-08T03:22:18;21.80;;;16.98;;
2544;SDS011;36212;48.838;9.142;2024-03-08T03:24:51;27.98;;;17.38;;
2544;SDS011;36212;48.838;9.142;2024-03-08T03:27:25;23.20;;;15.73;;
2544;SDS011;36212;48.838;9.142;2024-03-08T03:29:57;21.15;;;16.77;;
2544;SDS011;36212;48.838;9.142;2024-03-08T03:32:50;20.65;;;17.10;;
2544;SDS011;36212;48.838;9.142;2024-03-08T03:35:24;21.60;;;17.50;;
2544;SDS011;36212;48.838;9.142;2024-03-08T03:37:58;22.92;;;17.15;;
2544;SDS011;36212;48.838;9.142;2024-03-08T03:40:37;22.77;;;18.60;;
2544;SDS011;36212;48.838;9.142;2024-03-08T03:43:12;22.20;;;17.35;;
2544;SDS011;36212;48.838;9.142;2024-03-08T03:45:44;22.80;;;18.05;;
2544;SDS011;36212;48.838;9.142;2024-03-08T03:48:16;21.00;;;16.35;;
2544;SDS011;36212;48.838;9.142;2024-03-08T03:50:49;20.42;;;17.50;;
2544;SDS011;36212;48.838;9.142;2024-03-08T03:53:21;24.10;;;17.30;;
2544;SDS011;36212;48.838;9.142;2024-03-08T03:55:56;25.50;;;17.67;;
2544;SDS011;36212;48.838;9.142;2024-03-08T03:58:29;21.00;;;16.73;;
2544;SDS011;36212;48.838;9.142;2024-03-08T04:01:04;20.27;;;16.40;;
2544;SDS011;36212;48.838;9.142;2024-03-08T04:03:38;20.67;;;15.60;;
2544;SDS011;36212;48.838;9.142;2024-03-08T04:06:14;24.83;;;18.30;;
2544;SDS011;36212;48.838;9.142;2024-03-08T04:08:47;20.65;;;16.70;;
2544;SDS011;36212;48.838;9.142;2024-03-08T04:11:19;22.15;;;16.95;;
2544;SDS011;36212;48.838;9.142;2024-03-08T04:13:53;19.30;;;15.30;;
2544;SDS011;36212;48.838;9.142;2024-03-08T04:16:26;21.08;;;16.23;;
2544;SDS011;36212;48.838;9.142;2024-03-08T04:18:58;25.58;;;16.52;;
2544;SDS011;36212;48.838;9.142;2024-03-08T04:21:34;24.25;;;17.65;;
2544;SDS011;36212;48.838;9.142;2024-03-08T04:24:06;21.55;;;17.55;;
2544;SDS011;36212;48.838;9.142;2024-03-08T04:26:40;24.15;;;18.95;;
2544;SDS011;36212;48.838;9.142;2024-03-08T04:29:13;25.38;;;18.58;;
2544;SDS011;36212;48.838;9.142;2024-03-08T04:31:47;23.23;;;17.20;;
2544;SDS011;36212;48.838;9.142;2024-03-08T04:34:20;25.48;;;17.25;;
2544;SDS011;36212;48.838;9.142;2024-03-08T04:36:52;22.65;;;18.58;;
2544;SDS011;36212;48.838;9.142;2024-03-08T04:39:52;20.02;;;15.85;;
2544;SDS011;36212;48.838;9.142;2024-03-08T04:42:49;25.33;;;18.25;;
2544;SDS011;36212;48.838;9.142;2024-03-08T04:45:22;23.80;;;17.80;;
2544;SDS011;36212;48.838;9.142;2024-03-08T04:47:56;26.92;;;18.73;;
2544;SDS011;36212;48.838;9.142;2024-03-08T04:50:28;20.98;;;17.30;;
2544;SDS011;36212;48.838;9.142;2024-03-08T04:53:01;23.58;;;18.70;;
2544;SDS011;36212;48.838;9.142;2024-03-08T04:55:38;22.33;;;17.25;;
2544;SDS011;36212;48.838;9.142;2024-03-08T04:58:10;24.55;;;18.85;;
2544;SDS011;36212;48.838;9.142;2024-03-08T05:00:43;24.88;;;19.42;;
2544;SDS011;36212;48.838;9.142;2024-03-08T05:03:16;27.63;;;19.38;;
2544;SDS011;36212;48.838;9.142;2024-03-08T05:05:48;22.85;;;18.95;;
2544;SDS011;36212;48.838;9.142;2024-03-08T05:08:21;26.27;;;19.98;;
2544;SDS011;36212;48.838;9.142;2024-03-08T05:10:53;26.48;;;20.05;;
2544;SDS011;36212;48.838;9.142;2024-03-08T05:13:26;24.98;;;20.13;;
2544;SDS011;36212;48.838;9.142;2024-03-08T05:16:24;25.00;;;18.50;;
2544;SDS011;36212;48.838;9.142;2024-03-08T05:18:57;26.15;;;19.73;;
2544;SDS011;36212;48.838;9.142;2024-03-08T05:21:29;30.60;;;21.75;;
2544;SDS011;36212;48.838;9.142;2024-03-08T05:24:03;25.95;;;21.00;;
2544;SDS011;36212;48.838;9.142;2024-03-08T05:26:37;24.92;;;19.30;;
2544;SDS011;36212;48.838;9.142;2024-03-08T05:29:13;28.02;;;21.48;;
2544;SDS011;36212;48.838;9.142;2024-03-08T05:31:50;32.05;;;20.98;;
2544;SDS011;36212;48.838;9.142;2024-03-08T05:34:27;26.30;;;19.20;;
2544;SDS011;36212;48.838;9.142;2024-03-08T05:37:10;24.67;;;20.30;;
2544;SDS011;36212;48.838;9.142;2024-03-08T05:40:09;25.02;;;20.02;;
2544;SDS011;36212;48.838;9.142;2024-03-08T05:42:49;25.92;;;19.55;;
2544;SDS011;36212;48.838;9.142;2024-03-08T05:45:21;25.95;;;19.95;;
2544;SDS011;36212;48.838;9.142;2024-03-08T05:47:55;29.85;;;21.38;;
2544;SDS011;36212;48.838;9.142;2024-03-08T05:50:28;24.98;;;19.40;;
2544;SDS011;36212;48.838;9.142;2024-03-08T05:53:01;23.35;;;17.90;;
2544;SDS011;36212;48.838;9.142;2024-03-08T05:55:35;25.80;;;19.83;;
2544;SDS011;36212;48.838;9.142;2024-03-08T05:58:09;26.85;;;19.83;;
2544;SDS011;36212;48.838;9.142;2024-03-08T06:00:43;25.35;;;19.92;;
2544;SDS011;36212;48.838;9.142;2024-03-08T06:03:21;28.40;;;21.08;;
2544;SDS011;36212;48.838;9.142;2024-03-08T06:05:53;25.88;;;20.15;;
2544;SDS011;36212;48.838;9.142;2024-03-08T06:08:26;27.90;;;19.98;;
2544;SDS011;36212;48.838;9.142;2024-03-08T06:11:02;26.17;;;20.88;;
2544;SDS011;36212;48.838;9.142;2024-03-08T06:13:36;28.45;;;20.65;;
2544;SDS011;36212;48.838;9.142;2024-03-08T06:16:08;26.60;;;20.30;;
2544;SDS011;36212;48.838;9.142;2024-03-08T06:18:41;26.13;;;20.35;;
2544;SDS011;36212;48.838;9.142;2024-03-08T06:21:14;27.55;;;19.70;;
2544;SDS011;36212;48.838;9.142;2024-03-08T06:23:48;28.33;;;19.98;;
2544;SDS011;36212;48.838;9.142;2024-03-08T06:26:26;29.75;;;22.08;;
2544;SDS011;36212;48.838;9.142;2024-03-08T06:29:04;32.30;;;19.75;;
2544;SDS011;36212;48.838;9.142;2024-03-08T06:31:38;29.67;;;21.52;;
2544;SDS011;36212;48.838;9.142;2024-03-08T06:34:11;35.35;;;21.85;;
2544;SDS011;36212;48.838;9.142;2024-03-08T06:36:45;28.05;;;21.73;;
2544;SDS011;36212;48.838;9.142;2024-03-08T06:39:18;27.83;;;21.38;;
2544;SDS011;36212;48.838;9.142;2024-03-08T06:41:50;31.58;;;22.02;;
2544;SDS011;36212;48.838;9.142;2024-03-08T06:44:23;32.30;;;24.10;;
2544;SDS011;36212;48.838;9.142;2024-03-08T06:46:56;29.25;;;22.85;;
2544;SDS011;36212;48.838;9.142;2024-03-08T06:49:31;29.27;;;21.73;;
2544;SDS011;36212;48.838;9.142;2024-03-08T06:52:04;27.38;;;21.90;;
2544;SDS011;36212;48.838;9.142;2024-03-08T06:54:40;33.40;;;21.92;;
2544;SDS011;36212;48.838;9.142;2024-03-08T06:57:12;25.35;;;21.05;;
2544;SDS011;36212;48.838;9.142;2024-03-08T06:59:46;27.25;;;23.40;;
2544;SDS011;36212;48.838;9.142;2024-03-08T07:02:19;29.40;;;21.95;;
2544;SDS011;36212;48.838;9.142;2024-03-08T07:04:56;32.00;;;24.35;;
2544;SDS011;36212;48.838;9.142;2024-03-08T07:07:55;27.58;;;21.13;;
2544;SDS011;36212;48.838;9.142;2024-03-08T07:10:28;29.27;;;21.42;;
2544;SDS011;36212;48.838;9.142;2024-03-08T07:13:01;29.85;;;21.65;;
2544;SDS011;36212;48.838;9.142;2024-03-08T07:15:34;24.73;;;20.15;;
2544;SDS011;36212;48.838;9.142;2024-03-08T07:18:07;25.70;;;19.88;;
2544;SDS011;36212;48.838;9.142;2024-03-08T07:20:44;28.45;;;21.58;;
2544;SDS011;36212;48.838;9.142;2024-03-08T07:23:17;28.42;;;20.33;;
2544;SDS011;36212;48.838;9.142;2024-03-08T07:26:27;26.58;;;20.98;;
2544;SDS011;36212;48.838;9.142;2024-03-08T07:29:00;30.27;;;22.55;;
2544;SDS011;36212;48.838;9.142;2024-03-08T07:31:58;29.15;;;20.73;;
2544;SDS011;36212;48.838;9.142;2024-03-08T07:34:55;27.85;;;21.08;;
2544;SDS011;36212;48.838;9.142;2024-03-08T07:37:28;25.98;;;21.80;;
2544;SDS011;36212;48.838;9.142;2024-03-08T07:40:01;26.60;;;21.10;;
2544;SDS011;36212;48.838;9.142;2024-03-08T07:42:34;26.98;;;20.23;;
2544;SDS011;36212;48.838;9.142;2024-03-08T07:45:07;27.10;;;20.35;;
2544;SDS011;36212;48.838;9.142;2024-03-08T07:47:43;24.88;;;19.80;;
2544;SDS011;36212;48.838;9.142;2024-03-08T07:50:16;25.02;;;17.92;;
2544;SDS011;36212;48.838;9.142;2024-03-08T07:52:49;23.35;;;19.90;;
2544;SDS011;36212;48.838;9.142;2024-03-08T07:55:22;24.23;;;20.23;;
2544;SDS011;36212;48.838;9.142;2024-03-08T07:57:56;27.08;;;21.77;;
2544;SDS011;36212;48.838;9.142;2024-03-08T08:00:30;24.77;;;18.20;;
2544;SDS011;36212;48.838;9.142;2024-03-08T08:03:06;21.35;;;18.52;;
2544;SDS011;36212;48.838;9.142;2024-03-08T08:05:40;23.95;;;19.35;;
2544;SDS011;36212;48.838;9.142;2024-03-08T08:08:12;24.23;;;19.42;;
2544;SDS011;36212;48.838;9.142;2024-03-08T08:10:45;24.02;;;19.52;;
2544;SDS011;36212;48.838;9.142;2024-03-08T08:13:18;30.45;;;20.52;;
2544;SDS011;36212;48.838;9.142;2024-03-08T08:15:51;23.13;;;19.35;;
2544;SDS011;36212;48.838;9.142;2024-03-08T08:18:23;22.33;;;19.65;;
2544;SDS011;36212;48.838;9.142;2024-03-08T08:20:57;22.02;;;18.55;;
2544;SDS011;36212;48.838;9.142;2024-03-08T08:23:31;29.85;;;20.00;;
2544;SDS011;36212;48.838;9.142;2024-03-08T08:26:04;24.38;;;18.20;;
2544;SDS011;36212;48.838;9.142;2024-03-08T08:28:41;23.48;;;18.95;;
2544;SDS011;36212;48.838;9.142;2024-03-08T08:31:16;21.67;;;18.48;;
2544;SDS011;36212;48.838;9.142;2024-03-08T08:33:49;26.65;;;19.70;;
2544;SDS011;36212;48.838;9.142;2024-03-08T08:36:28;24.58;;;19.70;;
2544;SDS011;36212;48.838;9.142;2024-03-08T08:39:02;21.85;;;17.58;;
2544;SDS011;36212;48.838;9.142;2024-03-08T08:41:42;22.50;;;18.35;;
2544;SDS011;36212;48.838;9.142;2024-03-08T08:44:17;24.75;;;20.00;;
2544;SDS011;36212;48.838;9.142;2024-03-08T08:46:49;22.40;;;19.38;;
2544;SDS011;36212;48.838;9.142;2024-03-08T08:49:28;21.73;;;17.10;;
2544;SDS011;36212;48.838;9.142;2024-03-08T08:52:02;22.08;;;18.20;;
2544;SDS011;36212;48.838;9.142;2024-03-08T08:54:47;23.95;;;20.08;;
2544;SDS011;36212;48.838;9.142;2024-03-08T08:57:21;25.13;;;19.42;;
2544;SDS011;36212;48.838;9.142;2024-03-08T08:59:54;24.52;;;20.40;;
2544;SDS011;36212;48.838;9.142;2024-03-08T09:02:28;25.27;;;18.90;;
2544;SDS011;36212;48.838;9.142;2024-03-08T09:05:01;23.23;;;19.30;;
2544;SDS011;36212;48.838;9.142;2024-03-08T09:07:36;20.55;;;16.48;;
2544;SDS011;36212;48.838;9.142;2024-03-08T09:10:09;25.95;;;20.58;;
2544;SDS011;36212;48.838;9.142;2024-03-08T09:12:47;24.20;;;18.25;;
2544;SDS011;36212;48.838;9.142;2024-03-08T09:15:19;22.52;;;18.95;;
2544;SDS011;36212;48.838;9.142;2024-03-08T09:17:52;23.92;;;18.00;;
2544;SDS011;36212;48.838;9.142;2024-03-08T09:20:25;21.75;;;18.95;;
2544;SDS011;36212;48.838;9.142;2024-03-08T09:22:57;22.90;;;19.35;;
2544;SDS011;36212;48.838;9.142;2024-03-08T09:25:30;22.73;;;18.40;;
2544;SDS011;36212;48.838;9.142;2024-03-08T09:28:03;23.27;;;19.05;;
2544;SDS011;36212;48.838;9.142;2024-03-08T09:30:39;20.27;;;18.08;;
2544;SDS011;36212;48.838;9.142;2024-03-08T09:33:14;22.13;;;17.63;;
2544;SDS011;36212;48.838;9.142;2024-03-08T09:35:51;21.85;;;16.42;;
2544;SDS011;36212;48.838;9.142;2024-03-08T09:38:24;24.27;;;19.23;;
2544;SDS011;36212;48.838;9.142;2024-03-08T09:40:57;24.80;;;18.08;;
2544;SDS011;36212;48.838;9.142;2024-03-08T09:43:31;20.05;;;16.83;;
2544;SDS011;36212;48.838;9.142;2024-03-08T09:46:05;21.27;;;18.30;;
2544;SDS011;36212;48.838;9.142;2024-03-08T09:48:41;22.08;;;17.75;;
2544;SDS011;36212;48.838;9.142;2024-03-08T09:51:16;22.40;;;20.00;;
2544;SDS011;36212;48.838;9.142;2024-03-08T09:53:57;21.25;;;17.45;;
2544;SDS011;36212;48.838;9.142;2024-03-08T09:56:36;21.15;;;17.50;;
2544;SDS011;36212;48.838;9.142;2024-03-08T09:59:13;19.15;;;17.17;;
2544;SDS011;36212;48.838;9.142;2024-03-08T10:02:17;25.02;;;18.73;;
2544;SDS011;36212;48.838;9.142;2024-03-08T10:04:51;18.90;;;15.95;;
2544;SDS011;36212;48.838;9.142;2024-03-08T10:07:27;19.92;;;17.27;;
2544;SDS011;36212;48.838;9.142;2024-03-08T10:10:00;21.88;;;17.88;;
2544;SDS011;36212;48.838;9.142;2024-03-08T10:12:34;19.35;;;17.33;;
2544;SDS011;36212;48.838;9.142;2024-03-08T10:15:08;22.40;;;17.92;;
2544;SDS011;36212;48.838;9.142;2024-03-08T10:17:42;19.48;;;15.93;;
2544;SDS011;36212;48.838;9.142;2024-03-08T10:20:16;19.08;;;15.70;;
2544;SDS011;36212;48.838;9.142;2024-03-08T10:22:50;17.27;;;15.48;;
2544;SDS011;36212;48.838;9.142;2024-03-08T10:25:40;21.33;;;18.00;;
2544;SDS011;36212;48.838;9.142;2024-03-08T10:28:15;17.77;;;15.43;;
2544;SDS011;36212;48.838;9.142;2024-03-08T10:30:48;18.70;;;16.60;;
2544;SDS011;36212;48.838;9.142;2024-03-08T10:33:21;20.05;;;15.88;;
2544;SDS011;36212;48.838;9.142;2024-03-08T10:35:55;19.70;;;15.75;;
2544;SDS011;36212;48.838;9.142;2024-03-08T10:38:30;19.42;;;17.30;;
2544;SDS011;36212;48.838;9.142;2024-03-08T10:41:08;18.77;;;16.67;;
2544;SDS011;36212;48.838;9.142;2024-03-08T10:47:02;17.25;;;14.68;;
2544;SDS011;36212;48.838;9.142;2024-03-08T10:52:49;20.10;;;16.45;;
2544;SDS011;36212;48.838;9.142;2024-03-08T10:55:25;21.63;;;17.00;;
2544;SDS011;36212;48.838;9.142;2024-03-08T10:58:03;21.48;;;17.27;;
2544;SDS011;36212;48.838;9.142;2024-03-08T11:00:38;20.50;;;17.38;;
2544;SDS011;36212;48.838;9.142;2024-03-08T11:06:15;22.15;;;16.60;;
2544;SDS011;36212;48.838;9.142;2024-03-08T11:09:00;20.95;;;16.15;;
2544;SDS011;36212;48.838;9.142;2024-03-08T11:11:41;17.60;;;15.57;;
2544;SDS011;36212;48.838;9.142;2024-03-08T11:14:59;19.27;;;16.05;;
2544;SDS011;36212;48.838;9.142;2024-03-08T11:17:49;19.67;;;16.95;;
2544;SDS011;36212;48.838;9.142;2024-03-08T11:20:28;19.20;;;16.58;;
2544;SDS011;36212;48.838;9.142;2024-03-08T11:23:05;19.90;;;16.15;;
2544;SDS011;36212;48.838;9.142;2024-03-08T11:26:18;18.65;;;16.55;;
2544;SDS011;36212;48.838;9.142;2024-03-08T11:28:54;20.58;;;16.52;;
2544;SDS011;36212;48.838;9.142;2024-03-08T11:31:47;23.05;;;17.35;;
2544;SDS011;36212;48.838;9.142;2024-03-08T11:34:20;19.88;;;15.98;;
2544;SDS011;36212;48.838;9.142;2024-03-08T11:36:55;21.67;;;17.48;;
2544;SDS011;36212;48.838;9.142;2024-03-08T11:39:28;21.20;;;18.35;;
2544;SDS011;36212;48.838;9.142;2024-03-08T11:42:02;19.00;;;17.00;;
2544;SDS011;36212;48.838;9.142;2024-03-08T11:44:35;19.50;;;17.42;;
2544;SDS011;36212;48.838;9.142;2024-03-08T11:47:08;18.40;;;15.90;;
2544;SDS011;36212;48.838;9.142;2024-03-08T11:49:45;19.20;;;16.02;;
2544;SDS011;36212;48.838;9.142;2024-03-08T11:52:20;20.95;;;17.00;;
2544;SDS011;36212;48.838;9.142;2024-03-08T11:54:55;20.98;;;17.48;;
2544;SDS011;36212;48.838;9.142;2024-03-08T11:57:30;21.48;;;17.75;;
2544;SDS011;36212;48.838;9.142;2024-03-08T12:00:06;19.42;;;16.75;;
2544;SDS011;36212;48.838;9.142;2024-03-08T12:03:03;20.50;;;17.58;;
2544;SDS011;36212;48.838;9.142;2024-03-08T12:05:41;19.95;;;16.52;;
2544;SDS011;36212;48.838;9.142;2024-03-08T12:08:27;19.80;;;14.93;;
2544;SDS011;36212;48.838;9.142;2024-03-08T12:11:01;21.92;;;17.40;;
2544;SDS011;36212;48.838;9.142;2024-03-08T12:13:35;19.52;;;17.48;;
2544;SDS011;36212;48.838;9.142;2024-03-08T12:16:09;21.98;;;17.35;;
2544;SDS011;36212;48.838;9.142;2024-03-08T12:18:42;20.17;;;16.52;;
2544;SDS011;36212;48.838;9.142;2024-03-08T12:21:14;18.10;;;16.27;;
2544;SDS011;36212;48.838;9.142;2024-03-08T12:24:06;19.77;;;16.23;;
2544;SDS011;36212;48.838;9.142;2024-03-08T12:26:47;19.08;;;16.50;;
2544;SDS011;36212;48.838;9.142;2024-03-08T12:29:22;20.50;;;18.30;;
2544;SDS011;36212;48.838;9.142;2024-03-08T12:31:58;22.05;;;17.63;;
2544;SDS011;36212;48.838;9.142;2024-03-08T12:34:35;20.00;;;17.25;;
2544;SDS011;36212;48.838;9.142;2024-03-08T12:37:08;18.92;;;16.05;;
2544;SDS011;36212;48.838;9.142;2024-03-08T12:39:43;18.58;;;16.42;;
2544;SDS011;36212;48.838;9.142;2024-03-08T12:42:18;18.42;;;16.50;;
2544;SDS011;36212;48.838;9.142;2024-03-08T12:44:53;20.05;;;17.40;;
2544;SDS011;36212;48.838;9.142;2024-03-08T12:47:26;19.63;;;17.63;;
2544;SDS011;36212;48.838;9.142;2024-03-08T12:50:02;19.65;;;17.55;;
2544;SDS011;36212;48.838;9.142;2024-03-08T12:52:40;18.50;;;16.60;;
2544;SDS011;36212;48.838;9.142;2024-03-08T12:55:13;21.92;;;18.25;;
2544;SDS011;36212;48.838;9.142;2024-03-08T12:57:48;19.77;;;17.20;;
2544;SDS011;36212;48.838;9.142;2024-03-08T13:00:23;19.48;;;17.48;;
2544;SDS011;36212;48.838;9.142;2024-03-08T13:02:57;18.25;;;16.42;;
2544;SDS011;36212;48.838;9.142;2024-03-08T13:05:32;18.77;;;16.80;;
2544;SDS011;36212;48.838;9.142;2024-03-08T13:08:08;19.48;;;17.38;;
2544;SDS011;36212;48.838;9.142;2024-03-08T13:10:46;17.50;;;15.63;;
2544;SDS011;36212;48.838;9.142;2024-03-08T13:13:21;19.77;;;17.70;;
2544;SDS011;36212;48.838;9.142;2024-03-08T13:15:55;18.38;;;16.50;;
2544;SDS011;36212;48.838;9.142;2024-03-08T13:18:30;19.95;;;16.85;;
2544;SDS011;36212;48.838;9.142;2024-03-08T13:21:04;18.83;;;16.48;;
2544;SDS011;36212;48.838;9.142;2024-03-08T13:23:41;18.10;;;16.20;;
2544;SDS011;36212;48.838;9.142;2024-03-08T13:26:19;17.98;;;16.08;;
2544;SDS011;36212;48.838;9.142;2024-03-08T13:28:56;19.92;;;17.55;;
2544;SDS011;36212;48.838;9.142;2024-03-08T13:31:30;19.48;;;17.52;;
2544;SDS011;36212;48.838;9.142;2024-03-08T13:34:06;18.80;;;16.80;;
2544;SDS011;36212;48.838;9.142;2024-03-08T13:36:41;19.73;;;17.80;;
2544;SDS011;36212;48.838;9.142;2024-03-08T13:39:16;19.27;;;17.25;;
2544;SDS011;36212;48.838;9.142;2024-03-08T13:41:56;20.75;;;18.55;;
2544;SDS011;36212;48.838;9.142;2024-03-08T13:44:28;20.98;;;18.67;;
2544;SDS011;36212;48.838;9.142;2024-03-08T13:47:02;21.10;;;19.00;;
2544;SDS011;36212;48.838;9.142;2024-03-08T13:49:37;19.95;;;17.52;;
2544;SDS011;36212;48.838;9.142;2024-03-08T13:52:10;20.75;;;18.67;;
2544;SDS011;36212;48.838;9.142;2024-03-08T13:54:47;20.17;;;17.95;;
2544;SDS011;36212;48.838;9.142;2024-03-08T13:57:20;18.50;;;16.63;;
2544;SDS011;36212;48.838;9.142;2024-03-08T13:59:54;19.45;;;17.55;;
2544;SDS011;36212;48.838;9.142;2024-03-08T14:02:27;21.48;;;19.17;;
2544;SDS011;36212;48.838;9.142;2024-03-08T14:05:01;20.90;;;18.65;;
2544;SDS011;36212;48.838;9.142;2024-03-08T14:07:35;19.80;;;17.75;;
2544;SDS011;36212;48.838;9.142;2024-03-08T14:10:08;18.80;;;16.08;;
2544;SDS011;36212;48.838;9.142;2024-03-08T14:13:07;17.30;;;15.70;;
2544;SDS011;36212;48.838;9.142;2024-03-08T14:15:42;19.83;;;17.77;;
2544;SDS011;36212;48.838;9.142;2024-03-08T14:18:16;18.17;;;16.45;;
2544;SDS011;36212;48.838;9.142;2024-03-08T14:20:49;18.90;;;17.00;;
2544;SDS011;36212;48.838;9.142;2024-03-08T14:23:23;20.90;;;18.70;;
2544;SDS011;36212;48.838;9.142;2024-03-08T14:25:57;19.23;;;17.17;;
2544;SDS011;36212;48.838;9.142;2024-03-08T14:28:33;19.17;;;17.23;;
2544;SDS011;36212;48.838;9.142;2024-03-08T14:31:06;20.05;;;17.98;;
2544;SDS011;36212;48.838;9.142;2024-03-08T14:33:44;20.33;;;18.20;;
2544;SDS011;36212;48.838;9.142;2024-03-08T14:36:46;19.98;;;18.08;;
2544;SDS011;36212;48.838;9.142;2024-03-08T14:39:19;19.70;;;17.63;;
2544;SDS011;36212;48.838;9.142;2024-03-08T14:41:59;19.70;;;17.85;;
2544;SDS011;36212;48.838;9.142;2024-03-08T14:44:33;17.40;;;15.75;;
2544;SDS011;36212;48.838;9.142;2024-03-08T14:47:08;19.17;;;17.27;;
2544;SDS011;36212;48.838;9.142;2024-03-08T14:49:44;18.75;;;16.80;;
2544;SDS011;36212;48.838;9.142;2024-03-08T14:52:19;19.48;;;17.55;;
2544;SDS011;36212;48.838;9.142;2024-03-08T14:55:01;20.52;;;18.33;;
2544;SDS011;36212;48.838;9.142;2024-03-08T14:57:38;18.20;;;16.30;;
2544;SDS011;36212;48.838;9.142;2024-03-08T15:00:12;17.40;;;15.63;;
2544;SDS011;36212;48.838;9.142;2024-03-08T15:03:10;18.25;;;16.45;;
2544;SDS011;36212;48.838;9.142;2024-03-08T15:05:50;18.73;;;16.77;;
2544;SDS011;36212;48.838;9.142;2024-03-08T15:08:23;23.55;;;17.98;;
2544;SDS011;36212;48.838;9.142;2024-03-08T15:10:57;18.70;;;16.02;;
2544;SDS011;36212;48.838;9.142;2024-03-08T15:13:31;19.25;;;17.33;;
2544;SDS011;36212;48.838;9.142;2024-03-08T15:16:21;19.85;;;17.85;;
2544;SDS011;36212;48.838;9.142;2024-03-08T15:18:55;18.73;;;16.75;;
2544;SDS011;36212;48.838;9.142;2024-03-08T15:21:31;19.63;;;17.73;;
2544;SDS011;36212;48.838;9.142;2024-03-08T15:24:04;20.95;;;18.83;;
2544;SDS011;36212;48.838;9.142;2024-03-08T15:26:45;19.70;;;17.60;;
2544;SDS011;36212;48.838;9.142;2024-03-08T15:29:25;19.90;;;17.65;;
2544;SDS011;36212;48.838;9.142;2024-03-08T15:31:58;18.85;;;16.85;;
2544;SDS011;36212;48.838;9.142;2024-03-08T15:34:32;21.75;;;18.20;;
2544;SDS011;36212;48.838;9.142;2024-03-08T15:37:12;19.50;;;17.60;;